createdAt,value
2019-01-23T00:01:00.175Z,25
2019-01-23T00:02:02.618Z,25.3
2019-01-23T00:03:05.044Z,24.9
2019-01-23T00:04:07.474Z,25.1
2019-01-23T00:05:09.903Z,25
2019-01-23T00:06:12.067Z,25.2
2019-01-23T00:07:14.494Z,25.4
2019-01-23T00:08:16.658Z,25.2
2019-01-23T00:09:18.798Z,25.1
2019-01-23T00:10:21.220Z,25.2
2019-01-23T00:11:23.653Z,25.1
2019-01-23T00:12:25.246Z,24.9
2019-01-23T00:13:27.666Z,25.3
2019-01-23T00:14:29.806Z,25
2019-01-23T00:15:32.237Z,25
2019-01-23T00:16:34.666Z,25
2019-01-23T00:17:37.098Z,25.3
2019-01-23T00:18:39.528Z,25.3
2019-01-23T00:19:41.944Z,25
2019-01-23T00:20:44.375Z,25.1
2019-01-23T00:21:46.800Z,25.2
2019-01-23T00:22:49.244Z,25
2019-01-23T00:23:51.676Z,25
2019-01-23T00:24:53.833Z,25.2
2019-01-23T00:25:56.250Z,24.9
2019-01-23T00:26:58.682Z,25.2
2019-01-23T00:28:01.122Z,25.1
2019-01-23T00:29:03.554Z,25.3
2019-01-23T00:30:05.994Z,25.3
2019-01-23T00:31:08.148Z,25.2
2019-01-23T00:32:10.582Z,25.1
2019-01-23T00:33:13.008Z,25.4
2019-01-23T00:34:15.432Z,25.2
2019-01-23T00:35:17.564Z,25.3
2019-01-23T00:36:19.724Z,25.3
2019-01-23T00:37:21.884Z,25.2
2019-01-23T00:38:24.940Z,25.1
2019-01-23T00:39:27.096Z,25.3
2019-01-23T00:40:28.965Z,25
2019-01-23T00:41:31.110Z,25.4
2019-01-23T00:42:33.545Z,25.7
2019-01-23T00:43:35.977Z,25.4
2019-01-23T00:44:38.416Z,25.3
2019-01-23T00:45:40.848Z,25.5
2019-01-23T00:46:42.984Z,25.6
2019-01-23T00:47:45.430Z,25.4
2019-01-23T00:48:47.605Z,25.5
2019-01-23T00:49:50.033Z,25.3
2019-01-23T00:50:52.467Z,25
2019-01-23T00:51:54.893Z,25.1
2019-01-23T00:52:57.331Z,25.4
2019-01-23T00:53:59.475Z,25.3
2019-01-23T00:55:01.361Z,25.3
2019-01-23T00:56:03.797Z,25.1
2019-01-23T00:57:06.222Z,25.3
2019-01-23T00:58:08.094Z,25.2
2019-01-23T00:59:10.262Z,25.4
2019-01-23T01:00:12.688Z,25.5
2019-01-23T01:01:15.121Z,25.3
2019-01-23T01:02:17.535Z,25.2
2019-01-23T01:03:19.670Z,25.5
2019-01-23T01:04:22.090Z,25.3
2019-01-23T01:05:23.979Z,25.4
2019-01-23T01:06:26.408Z,25.5
2019-01-23T01:07:28.294Z,25.3
2019-01-23T01:08:30.744Z,25
2019-01-23T01:09:33.180Z,25.4
2019-01-23T01:10:35.620Z,25.4
2019-01-23T01:11:38.044Z,25.6
2019-01-23T01:12:40.194Z,25
2019-01-23T01:13:42.338Z,25.2
2019-01-23T01:14:44.777Z,25.3
2019-01-23T01:15:46.925Z,25.1
2019-01-23T01:16:49.054Z,25.1
2019-01-23T01:17:50.964Z,25.1
2019-01-23T01:18:53.116Z,25.4
2019-01-23T01:19:55.279Z,25
2019-01-23T01:20:57.431Z,25.5
2019-01-23T01:21:59.573Z,25
2019-01-23T01:23:02.024Z,25.2
2019-01-23T01:24:03.904Z,25.4
2019-01-23T01:25:06.327Z,25.2
2019-01-23T01:26:08.750Z,25.4
2019-01-23T01:27:10.904Z,25.1
2019-01-23T01:28:13.334Z,25.2
2019-01-23T01:29:15.498Z,25.2
2019-01-23T01:30:17.914Z,25.6
2019-01-23T01:31:20.344Z,25.4
2019-01-23T01:32:22.492Z,25.5
2019-01-23T01:33:24.928Z,25.1
2019-01-23T01:34:26.821Z,25.5
2019-01-23T01:35:29.238Z,25.4
2019-01-23T01:36:31.666Z,25.4
2019-01-23T01:37:33.835Z,25.4
2019-01-23T01:38:36.255Z,25.7
2019-01-23T01:39:38.130Z,25.4
2019-01-23T01:40:40.285Z,25.5
2019-01-23T01:41:42.716Z,25.7
2019-01-23T01:42:44.894Z,25.7
2019-01-23T01:43:47.074Z,25.7
2019-01-23T01:44:48.948Z,25.5
2019-01-23T01:45:51.374Z,25.7
2019-01-23T01:46:53.809Z,25.9
2019-01-23T01:47:56.234Z,25.7
2019-01-23T01:48:58.654Z,25.8
2019-01-23T01:50:00.824Z,25.8
2019-01-23T01:51:02.975Z,25.9
2019-01-23T01:52:05.134Z,25.7
2019-01-23T01:53:07.576Z,26
2019-01-23T01:54:10.010Z,25.9
2019-01-23T01:55:12.457Z,26
2019-01-23T01:56:14.880Z,25.7
2019-01-23T01:57:17.329Z,25.7
2019-01-23T01:58:19.475Z,25.8
2019-01-23T01:59:21.632Z,25.8
2019-01-23T02:00:23.508Z,25.9
2019-01-23T02:01:25.944Z,25.9
2019-01-23T02:02:28.394Z,25.9
2019-01-23T02:03:30.413Z,25.9
2019-01-23T02:04:32.854Z,25.9
2019-01-23T02:05:35.284Z,25.8
2019-01-23T02:06:37.710Z,25.9
2019-01-23T02:07:40.132Z,26
2019-01-23T02:08:42.555Z,25.8
2019-01-23T02:09:45.575Z,25.9
2019-01-23T02:10:47.794Z,26
2019-01-23T02:11:49.939Z,26.1
2019-01-23T02:12:52.360Z,26.1
2019-01-23T02:13:54.526Z,25.9
2019-01-23T02:14:56.677Z,25.9
2019-01-23T02:15:59.085Z,26
2019-01-23T02:18:18.121Z,26.1
2019-01-23T02:19:20.540Z,26.1
2019-01-23T02:20:22.398Z,26
2019-01-23T02:21:24.853Z,25.9
2019-01-23T02:22:27.270Z,26
2019-01-23T02:23:29.416Z,26
2019-01-23T02:24:31.841Z,26
2019-01-23T02:25:33.983Z,26.1
2019-01-23T02:26:36.134Z,26.2
2019-01-23T02:27:38.292Z,26
2019-01-23T02:28:40.714Z,26.1
2019-01-23T02:29:43.144Z,25.9
2019-01-23T02:30:45.574Z,25.9
2019-01-23T02:31:47.734Z,26.2
2019-01-23T02:32:49.882Z,26
2019-01-23T02:33:52.315Z,26.2
2019-01-23T02:34:54.740Z,26
2019-01-23T02:35:56.885Z,26.2
2019-01-23T02:36:59.318Z,26
2019-01-23T02:38:01.460Z,26.2
2019-01-23T02:39:03.608Z,26.2
2019-01-23T02:40:05.765Z,26.2
2019-01-23T02:41:08.203Z,26.1
2019-01-23T02:42:10.623Z,26.2
2019-01-23T02:43:12.498Z,26.2
2019-01-23T02:44:14.920Z,26.1
2019-01-23T02:45:17.070Z,26.2
2019-01-23T02:46:19.235Z,26.2
2019-01-23T02:47:21.375Z,26.1
2019-01-23T02:48:23.803Z,26.2
2019-01-23T02:49:26.234Z,26.1
2019-01-23T02:50:28.665Z,26.2
2019-01-23T02:51:31.095Z,26.3
2019-01-23T02:52:33.531Z,26.2
2019-01-23T02:53:35.964Z,26.3
2019-01-23T02:54:37.836Z,26.2
2019-01-23T02:55:39.993Z,26.3
2019-01-23T02:56:42.410Z,26.2
2019-01-23T02:57:44.835Z,26.3
2019-01-23T02:58:47.252Z,26.3
2019-01-23T02:59:49.684Z,26.3
2019-01-23T03:00:52.116Z,26.2
2019-01-23T03:01:54.525Z,26.3
2019-01-23T03:02:56.684Z,26.3
2019-01-23T03:03:59.108Z,26
2019-01-23T03:06:18.361Z,26.2
2019-01-23T03:07:20.779Z,26.1
2019-01-23T03:08:23.211Z,26.4
2019-01-23T03:09:25.635Z,26.1
2019-01-23T03:10:28.082Z,26.1
2019-01-23T03:11:30.520Z,26.3
2019-01-23T03:12:32.662Z,26.1
2019-01-23T03:13:35.084Z,26.3
2019-01-23T03:14:37.267Z,26.3
2019-01-23T03:15:39.694Z,26.1
2019-01-23T03:16:42.106Z,26.1
2019-01-23T03:17:44.258Z,26.2
2019-01-23T03:18:46.395Z,26.3
2019-01-23T03:19:48.543Z,26.2
2019-01-23T03:20:50.714Z,26
2019-01-23T03:21:52.599Z,26
2019-01-23T03:22:55.035Z,26.2
2019-01-23T03:23:57.189Z,26.1
2019-01-23T03:24:59.613Z,26.1
2019-01-23T03:26:02.181Z,26.2
2019-01-23T03:27:04.608Z,26.2
2019-01-23T03:28:07.036Z,26.1
2019-01-23T03:29:09.468Z,26.2
2019-01-23T03:30:11.889Z,26.1
2019-01-23T03:31:14.056Z,26.2
2019-01-23T03:32:16.493Z,26.1
2019-01-23T03:33:18.647Z,26.2
2019-01-23T03:34:20.812Z,26.2
2019-01-23T03:35:23.252Z,26.2
2019-01-23T03:36:25.131Z,26.2
2019-01-23T03:37:27.545Z,26.2
2019-01-23T03:38:29.671Z,26.3
2019-01-23T03:39:31.870Z,26.3
2019-01-23T03:40:34.033Z,26.2
2019-01-23T03:41:36.483Z,26.4
2019-01-23T03:42:38.633Z,26.1
2019-01-23T03:43:41.061Z,26.3
2019-01-23T03:44:43.484Z,26.2
2019-01-23T03:45:45.911Z,26.2
2019-01-23T03:46:48.326Z,26.4
2019-01-23T03:47:50.505Z,26.2
2019-01-23T03:48:52.663Z,26.3
2019-01-23T03:49:55.096Z,26.1
2019-01-23T03:50:57.240Z,26.2
2019-01-23T03:51:59.385Z,26.3
2019-01-23T03:53:01.525Z,26.1
2019-01-23T03:54:03.964Z,26.2
2019-01-23T03:55:06.408Z,26.3
2019-01-23T03:56:08.844Z,26.2
2019-01-23T03:57:11.034Z,26.3
2019-01-23T03:58:13.185Z,26.1
2019-01-23T03:59:15.614Z,26.4
2019-01-23T04:00:18.482Z,26.3
2019-01-23T04:01:20.974Z,26.3
2019-01-23T04:02:23.401Z,26.2
2019-01-23T04:03:25.834Z,26.3
2019-01-23T04:04:28.261Z,26.1
2019-01-23T04:05:31.128Z,26
2019-01-23T04:06:33.655Z,26
2019-01-23T04:07:36.074Z,26
2019-01-23T04:08:38.219Z,26
2019-01-23T04:09:40.092Z,25.9
2019-01-23T04:10:42.526Z,25.9
2019-01-23T04:11:44.955Z,25.8
2019-01-23T04:12:47.394Z,25.7
2019-01-23T04:13:49.821Z,25.8
2019-01-23T04:14:51.715Z,25.8
2019-01-23T04:15:53.593Z,25.8
2019-01-23T04:16:55.734Z,25.8
2019-01-23T04:17:57.886Z,25.7
2019-01-23T04:19:00.306Z,25.7
2019-01-23T04:20:02.729Z,25.6
2019-01-23T04:21:05.157Z,25.7
2019-01-23T04:22:07.310Z,25.7
2019-01-23T04:23:09.736Z,25.7
2019-01-23T04:24:11.628Z,25.6
2019-01-23T04:25:13.754Z,25.7
2019-01-23T04:26:16.197Z,25.4
2019-01-23T04:27:18.570Z,25.5
2019-01-23T04:28:21.130Z,25.6
2019-01-23T04:29:23.567Z,25.8
2019-01-23T04:30:25.998Z,25.6
2019-01-23T04:31:28.464Z,25.4
2019-01-23T04:32:30.655Z,25.5
2019-01-23T04:33:33.088Z,25.6
2019-01-23T04:34:35.537Z,25.7
2019-01-23T04:35:37.938Z,25.7
2019-01-23T04:36:40.370Z,25.6
2019-01-23T04:37:42.915Z,25.5
2019-01-23T04:38:45.093Z,25.7
2019-01-23T04:39:46.960Z,25.6
2019-01-23T04:40:49.141Z,25.5
2019-01-23T04:41:51.307Z,25.4
2019-01-23T04:42:53.745Z,25.6
2019-01-23T04:43:56.222Z,25.2
2019-01-23T04:44:58.376Z,25.5
2019-01-23T04:46:00.552Z,25.5
2019-01-23T04:47:02.982Z,25.8
2019-01-23T04:48:05.111Z,25.6
2019-01-23T04:49:07.247Z,25.3
2019-01-23T04:50:09.401Z,25.2
2019-01-23T04:51:11.551Z,25.7
2019-01-23T04:52:13.690Z,25.5
2019-01-23T04:53:16.122Z,25.6
2019-01-23T04:54:18.282Z,25.3
2019-01-23T04:55:20.714Z,25.3
2019-01-23T04:56:23.155Z,25.7
2019-01-23T04:57:25.047Z,25.4
2019-01-23T04:58:27.512Z,25.3
2019-01-23T04:59:29.943Z,25.4
2019-01-23T05:00:32.059Z,25.3
2019-01-23T05:01:34.475Z,25.6
2019-01-23T05:02:36.900Z,25.6
2019-01-23T05:03:39.324Z,25.4
2019-01-23T05:04:41.775Z,25.5
2019-01-23T05:05:44.199Z,25.3
2019-01-23T05:06:46.621Z,25.5
2019-01-23T05:07:49.054Z,25.4
2019-01-23T05:08:51.501Z,25.7
2019-01-23T05:09:55.580Z,25.3
2019-01-23T05:10:58.007Z,25.7
2019-01-23T05:12:00.176Z,25.4
2019-01-23T05:13:02.619Z,25.3
2019-01-23T05:14:05.043Z,25.6
2019-01-23T05:15:06.907Z,25.5
2019-01-23T05:16:09.337Z,25.7
2019-01-23T05:17:11.499Z,25.4
2019-01-23T05:18:13.925Z,25.5
2019-01-23T05:19:16.337Z,25.5
2019-01-23T05:20:18.773Z,25.4
2019-01-23T05:21:21.194Z,25.5
2019-01-23T05:22:23.339Z,25.4
2019-01-23T05:23:25.490Z,25.2
2019-01-23T05:24:27.916Z,25.1
2019-01-23T05:25:29.795Z,25.4
2019-01-23T05:26:32.225Z,25.6
2019-01-23T05:27:36.214Z,25
2019-01-23T05:28:38.345Z,25.3
2019-01-23T05:29:40.763Z,25.6
2019-01-23T05:30:42.925Z,25.3
2019-01-23T05:31:45.364Z,25.1
2019-01-23T05:32:47.523Z,25.7
2019-01-23T05:33:49.675Z,25.6
2019-01-23T05:34:51.811Z,25.4
2019-01-23T05:35:54.237Z,25.4
2019-01-23T05:36:56.377Z,25.3
2019-01-23T05:37:58.267Z,25.2
2019-01-23T05:39:00.694Z,25.4
2019-01-23T05:40:03.118Z,25.2
2019-01-23T05:41:05.538Z,25.1
2019-01-23T05:42:07.679Z,25.4
2019-01-23T05:43:10.098Z,25.1
2019-01-23T05:44:12.514Z,25.3
2019-01-23T05:45:14.953Z,25.5
2019-01-23T05:46:17.105Z,25.4
2019-01-23T05:47:19.533Z,25.2
2019-01-23T05:48:21.683Z,25.3
2019-01-23T05:49:24.114Z,25.2
2019-01-23T05:50:26.254Z,25.3
2019-01-23T05:51:28.444Z,25.4
2019-01-23T05:52:30.605Z,25.4
2019-01-23T05:53:32.766Z,25.4
2019-01-23T05:54:35.198Z,25.3
2019-01-23T05:55:37.625Z,25
2019-01-23T05:56:40.058Z,25.5
2019-01-23T05:57:42.479Z,25.4
2019-01-23T05:58:44.904Z,25.2
2019-01-23T05:59:46.816Z,25.1
2019-01-23T06:00:49.286Z,25.3
2019-01-23T06:01:51.457Z,25.6
2019-01-23T06:02:53.633Z,25.4
2019-01-23T06:03:55.766Z,25.5
2019-01-23T06:04:57.916Z,25.4
2019-01-23T06:06:00.342Z,25.2
2019-01-23T06:07:02.517Z,25.3
2019-01-23T06:08:04.952Z,25.3
2019-01-23T06:09:07.384Z,25.3
2019-01-23T06:10:09.535Z,25.3
2019-01-23T06:11:11.964Z,25.1
2019-01-23T06:12:14.436Z,25.3
2019-01-23T06:13:16.868Z,24.9
2019-01-23T06:14:19.302Z,25.2
2019-01-23T06:15:21.443Z,25.3
2019-01-23T06:16:23.081Z,25.2
2019-01-23T06:17:25.224Z,25.2
2019-01-23T06:18:27.121Z,25.1
2019-01-23T06:19:29.583Z,25.2
2019-01-23T06:20:32.075Z,25.4
2019-01-23T06:21:34.537Z,25.2
2019-01-23T06:22:36.959Z,25.3
2019-01-23T06:23:39.385Z,25.1
2019-01-23T06:24:41.812Z,25.5
2019-01-23T06:25:44.237Z,25.1
2019-01-23T06:26:46.655Z,25.6
2019-01-23T06:27:48.816Z,25.2
2019-01-23T06:28:51.252Z,25.4
2019-01-23T06:29:53.414Z,25.4
2019-01-23T06:30:55.568Z,25.4
2019-01-23T06:31:57.715Z,25.4
2019-01-23T06:32:59.883Z,25.3
2019-01-23T06:34:02.062Z,25.3
2019-01-23T06:35:04.494Z,25.1
2019-01-23T06:36:06.373Z,24.9
2019-01-23T06:37:08.558Z,25.5
2019-01-23T06:38:10.719Z,25.6
2019-01-23T06:39:13.141Z,25.3
2019-01-23T06:40:15.295Z,25.5
2019-01-23T06:41:17.427Z,25.3
2019-01-23T06:42:19.863Z,25.3
2019-01-23T06:43:22.284Z,25.3
2019-01-23T06:44:24.424Z,25.3
2019-01-23T06:45:26.584Z,25.1
2019-01-23T06:46:28.734Z,25.4
2019-01-23T06:47:30.630Z,25.2
2019-01-23T06:48:32.782Z,25
2019-01-23T06:49:34.952Z,24.9
2019-01-23T06:50:37.096Z,25.2
2019-01-23T06:51:39.542Z,25.4
2019-01-23T06:52:41.704Z,25.1
2019-01-23T06:53:44.134Z,25.4
2019-01-23T06:54:46.047Z,25.2
2019-01-23T06:55:48.220Z,25.1
2019-01-23T06:56:50.650Z,25.1
2019-01-23T06:57:53.088Z,25.3
2019-01-23T06:58:55.524Z,25.5
2019-01-23T06:59:57.387Z,25.2
2019-01-23T07:01:00.056Z,25.2
2019-01-23T07:02:02.244Z,25.1
2019-01-23T07:03:04.675Z,25.4
2019-01-23T07:04:07.104Z,25.2
2019-01-23T07:05:09.277Z,25.3
2019-01-23T07:06:11.697Z,25
2019-01-23T07:07:13.570Z,25.2
2019-01-23T07:08:15.730Z,25.2
2019-01-23T07:09:17.903Z,25.1
2019-01-23T07:10:20.084Z,25.3
2019-01-23T07:11:22.519Z,25.2
2019-01-23T07:12:24.660Z,25.1
2019-01-23T07:13:27.092Z,25.2
2019-01-23T07:14:30.766Z,25.1
2019-01-23T07:15:32.912Z,25.2
2019-01-23T07:16:35.336Z,25.1
2019-01-23T07:17:37.776Z,24.9
2019-01-23T07:18:40.204Z,25.2
2019-01-23T07:19:42.625Z,25.2
2019-01-23T07:20:45.050Z,25.3
2019-01-23T07:21:47.485Z,25
2019-01-23T07:22:49.935Z,25.1
2019-01-23T07:23:52.084Z,25.2
2019-01-23T07:24:54.511Z,25.1
2019-01-23T07:25:56.682Z,25.2
2019-01-23T07:26:59.134Z,25.2
2019-01-23T07:28:01.292Z,25
2019-01-23T07:29:03.710Z,25.1
2019-01-23T07:30:06.154Z,25.1
2019-01-23T07:31:08.588Z,24.9
2019-01-23T07:32:10.483Z,25.2
2019-01-23T07:33:12.354Z,24.9
2019-01-23T07:34:14.788Z,25.1
2019-01-23T07:35:17.222Z,25.1
2019-01-23T07:36:19.679Z,24.9
2019-01-23T07:37:21.867Z,25.1
2019-01-23T07:38:24.286Z,25.1
2019-01-23T07:39:26.744Z,25.3
2019-01-23T07:40:29.191Z,24.9
2019-01-23T07:41:31.343Z,25
2019-01-23T07:42:33.798Z,25.1
2019-01-23T07:43:36.232Z,25.1
2019-01-23T07:44:38.116Z,25.2
2019-01-23T07:45:40.275Z,24.9
2019-01-23T07:46:42.704Z,24.8
2019-01-23T07:47:44.876Z,24.9
2019-01-23T07:48:47.298Z,25
2019-01-23T07:49:49.447Z,25.1
2019-01-23T07:50:51.306Z,25
2019-01-23T07:51:53.731Z,25
2019-01-23T07:52:56.167Z,25.2
2019-01-23T07:53:58.602Z,25
2019-01-23T07:55:00.747Z,25
2019-01-23T07:56:02.338Z,25.1
2019-01-23T07:57:04.773Z,25.1
2019-01-23T07:58:06.925Z,24.9
2019-01-23T07:59:09.957Z,25.2
2019-01-23T08:00:12.451Z,24.8
2019-01-23T08:01:14.885Z,25.2
2019-01-23T08:02:17.314Z,25.1
2019-01-23T08:03:19.189Z,24.9
2019-01-23T08:04:21.620Z,25.1
2019-01-23T08:05:24.048Z,24.9
2019-01-23T08:06:26.192Z,25
2019-01-23T08:07:28.615Z,25
2019-01-23T08:08:30.786Z,24.9
2019-01-23T08:09:33.309Z,25.3
2019-01-23T08:10:35.714Z,25
2019-01-23T08:11:37.878Z,25.1
2019-01-23T08:12:40.305Z,24.8
2019-01-23T08:13:42.764Z,24.9
2019-01-23T08:14:45.015Z,25
2019-01-23T08:15:47.455Z,24.9
2019-01-23T08:16:49.884Z,24.9
2019-01-23T08:17:52.045Z,25.2
2019-01-23T08:18:54.475Z,25
2019-01-23T08:19:56.901Z,24.9
2019-01-23T08:20:59.332Z,25
2019-01-23T08:22:01.520Z,25.1
2019-01-23T08:23:04.020Z,25
2019-01-23T08:24:06.169Z,25.1
2019-01-23T08:25:08.334Z,25.1
2019-01-23T08:26:10.475Z,25
2019-01-23T08:27:12.884Z,24.9
2019-01-23T08:28:15.028Z,24.8
2019-01-23T08:29:17.451Z,25
2019-01-23T08:30:19.326Z,24.9
2019-01-23T08:31:21.765Z,25
2019-01-23T08:32:23.929Z,25
2019-01-23T08:33:26.375Z,24.9
2019-01-23T08:34:28.521Z,25.1
2019-01-23T08:35:30.681Z,25
2019-01-23T08:36:33.118Z,25.1
2019-01-23T08:37:35.555Z,24.8
2019-01-23T08:38:37.979Z,25.2
2019-01-23T08:39:40.405Z,24.8
2019-01-23T08:40:42.833Z,25.2
2019-01-23T08:41:44.996Z,24.9
2019-01-23T08:42:47.434Z,25.1
2019-01-23T08:43:49.852Z,24.8
2019-01-23T08:44:52.284Z,25.1
2019-01-23T08:45:54.702Z,25.2
2019-01-23T08:46:56.846Z,25.1
2019-01-23T08:47:59.268Z,25
2019-01-23T08:49:01.142Z,25
2019-01-23T08:50:03.567Z,25.1
2019-01-23T08:51:05.994Z,25.1
2019-01-23T08:52:07.885Z,25
2019-01-23T08:53:10.308Z,25.1
2019-01-23T08:54:12.758Z,24.9
2019-01-23T08:55:15.179Z,25.1
2019-01-23T08:56:17.332Z,25.2
2019-01-23T08:57:19.495Z,24.9
2019-01-23T08:58:21.674Z,25
2019-01-23T08:59:24.106Z,25
2019-01-23T09:00:25.985Z,24.9
2019-01-23T09:01:28.430Z,25
2019-01-23T09:02:30.861Z,25.2
2019-01-23T09:03:33.282Z,25.3
2019-01-23T09:04:35.430Z,25
2019-01-23T09:05:37.862Z,25.3
2019-01-23T09:06:40.281Z,24.9
2019-01-23T09:07:42.713Z,25.2
2019-01-23T09:08:45.131Z,25.3
2019-01-23T09:09:47.310Z,25.3
2019-01-23T09:10:49.741Z,25
2019-01-23T09:11:51.877Z,25.1
2019-01-23T09:12:54.004Z,25
2019-01-23T09:13:56.421Z,25.3
2019-01-23T09:14:58.585Z,25.2
2019-01-23T09:16:00.725Z,25.3
2019-01-23T09:17:02.886Z,25.1
2019-01-23T09:18:05.035Z,25.3
2019-01-23T09:19:08.775Z,25.1
2019-01-23T09:20:11.216Z,25.2
2019-01-23T09:21:13.121Z,25.2
2019-01-23T09:22:14.999Z,25.2
2019-01-23T09:23:17.154Z,25.1
2019-01-23T09:24:19.592Z,25.3
2019-01-23T09:25:21.753Z,25.2
2019-01-23T09:26:23.884Z,25.3
2019-01-23T09:27:26.021Z,24.9
2019-01-23T09:28:28.468Z,25
2019-01-23T09:29:30.625Z,25.2
2019-01-23T09:30:32.783Z,25.1
2019-01-23T09:31:35.203Z,25.1
2019-01-23T09:32:37.364Z,25.2
2019-01-23T09:33:39.784Z,25.2
2019-01-23T09:34:42.216Z,25
2019-01-23T09:35:44.645Z,25.2
2019-01-23T09:36:46.782Z,25
2019-01-23T09:37:48.945Z,25.1
2019-01-23T09:38:51.370Z,25
2019-01-23T09:39:53.514Z,25.2
2019-01-23T09:40:55.951Z,25
2019-01-23T09:41:58.089Z,25.2
2019-01-23T09:42:59.697Z,25.3
2019-01-23T09:44:02.152Z,25
2019-01-23T09:45:04.580Z,24.9
2019-01-23T09:46:07.015Z,25.1
2019-01-23T09:47:09.149Z,25
2019-01-23T09:48:11.287Z,25.1
2019-01-23T09:49:13.713Z,25.3
2019-01-23T09:50:15.860Z,25
2019-01-23T09:51:18.003Z,25.2
2019-01-23T09:52:20.159Z,24.9
2019-01-23T09:53:22.604Z,25.1
2019-01-23T09:54:25.049Z,25.2
2019-01-23T09:55:27.468Z,25.3
2019-01-23T09:56:29.889Z,25.1
2019-01-23T09:57:32.304Z,25.1
2019-01-23T09:58:34.745Z,25.2
2019-01-23T09:59:36.863Z,25.3
2019-01-23T10:00:38.448Z,25
2019-01-23T10:01:40.876Z,25.1
2019-01-23T10:02:43.035Z,25.4
2019-01-23T10:03:45.466Z,25.1
2019-01-23T10:04:47.894Z,25.1
2019-01-23T10:05:50.333Z,25
2019-01-23T10:06:52.486Z,25.1
2019-01-23T10:07:54.929Z,24.9
2019-01-23T10:08:57.206Z,25
2019-01-23T10:09:59.367Z,25.1
2019-01-23T10:11:01.263Z,25.2
2019-01-23T10:12:03.749Z,24.9
2019-01-23T10:13:05.650Z,25
2019-01-23T10:14:08.088Z,25.1
2019-01-23T10:15:10.252Z,24.9
2019-01-23T10:16:12.682Z,25
2019-01-23T10:17:15.111Z,25.1
2019-01-23T10:18:17.275Z,25.1
2019-01-23T10:19:19.727Z,25
2019-01-23T10:20:22.165Z,25.1
2019-01-23T10:21:24.585Z,25.1
2019-01-23T10:22:26.742Z,25.2
2019-01-23T10:23:28.327Z,25.1
2019-01-23T10:24:35.805Z,24.9
2019-01-23T10:25:35.730Z,25.1
2019-01-23T10:26:38.155Z,25.2
2019-01-23T10:27:40.311Z,25.2
2019-01-23T10:28:42.483Z,25.2
2019-01-23T10:29:44.635Z,25.2
2019-01-23T10:30:47.063Z,25
2019-01-23T10:31:49.214Z,24.8
2019-01-23T10:32:51.380Z,25
2019-01-23T10:33:53.796Z,25.1
2019-01-23T10:34:55.963Z,25
2019-01-23T10:35:57.847Z,24.9
2019-01-23T10:37:00.264Z,25.2
2019-01-23T10:38:02.705Z,25.2
2019-01-23T10:39:04.861Z,25.2
2019-01-23T10:40:07.290Z,25.1
2019-01-23T10:41:09.719Z,25.2
2019-01-23T10:42:11.865Z,24.8
2019-01-23T10:43:14.297Z,24.9
2019-01-23T10:44:16.753Z,25.3
2019-01-23T10:45:19.185Z,25
2019-01-23T10:46:21.602Z,25.2
2019-01-23T10:47:24.015Z,25.1
2019-01-23T10:48:26.178Z,25.2
2019-01-23T10:49:28.052Z,25.2
2019-01-23T10:50:30.214Z,25
2019-01-23T10:51:32.382Z,25.1
2019-01-23T10:52:34.816Z,25.1
2019-01-23T10:53:37.236Z,25.1
2019-01-23T10:54:39.165Z,25
2019-01-23T10:55:41.592Z,25.2
2019-01-23T10:56:44.018Z,25
2019-01-23T10:57:46.176Z,25
2019-01-23T10:58:48.079Z,25.1
2019-01-23T10:59:49.961Z,24.9
2019-01-23T11:00:52.395Z,25
2019-01-23T11:01:54.560Z,24.9
2019-01-23T11:02:56.698Z,25.1
2019-01-23T11:03:59.141Z,25.3
2019-01-23T11:05:01.293Z,25
2019-01-23T11:06:03.726Z,25.2
2019-01-23T11:07:05.883Z,25
2019-01-23T11:08:08.316Z,25.2
2019-01-23T11:09:10.509Z,25.1
2019-01-23T11:10:13.017Z,25
2019-01-23T11:11:15.439Z,25.1
2019-01-23T11:12:17.876Z,24.9
2019-01-23T11:13:20.051Z,25
2019-01-23T11:14:22.213Z,25.1
2019-01-23T11:15:24.382Z,24.8
2019-01-23T11:16:26.815Z,25
2019-01-23T11:17:29.186Z,24.9
2019-01-23T11:18:31.607Z,24.9
2019-01-23T11:19:34.035Z,25
2019-01-23T11:20:36.465Z,24.9
2019-01-23T11:21:38.911Z,25.2
2019-01-23T11:22:41.337Z,25
2019-01-23T11:23:43.778Z,24.9
2019-01-23T11:24:46.210Z,25.2
2019-01-23T11:25:48.649Z,25
2019-01-23T11:26:51.091Z,25.1
2019-01-23T11:27:53.523Z,25.2
2019-01-23T11:28:55.689Z,24.9
2019-01-23T11:29:57.879Z,24.8
2019-01-23T11:31:00.325Z,25
2019-01-23T11:32:02.483Z,25.1
2019-01-23T11:33:04.916Z,25
2019-01-23T11:34:07.085Z,25
2019-01-23T11:35:09.527Z,25.2
2019-01-23T11:36:11.975Z,25.3
2019-01-23T11:37:14.408Z,24.9
2019-01-23T11:38:16.856Z,25
2019-01-23T11:39:19.311Z,25.2
2019-01-23T11:40:21.755Z,24.8
2019-01-23T11:41:23.364Z,25.1
2019-01-23T11:42:25.265Z,25
2019-01-23T11:43:27.416Z,24.9
2019-01-23T11:44:29.591Z,25.1
2019-01-23T11:45:32.025Z,24.8
2019-01-23T11:46:34.457Z,25.1
2019-01-23T11:47:36.899Z,25.1
2019-01-23T11:48:39.330Z,25
2019-01-23T11:49:41.767Z,24.8
2019-01-23T11:50:43.904Z,24.9
2019-01-23T11:51:46.328Z,25.2
2019-01-23T11:52:48.759Z,25.1
2019-01-23T11:53:50.934Z,24.7
2019-01-23T11:54:53.358Z,25.3
2019-01-23T11:55:55.531Z,24.9
2019-01-23T11:56:57.685Z,25
2019-01-23T11:57:59.589Z,24.9
2019-01-23T11:59:01.780Z,25.1
2019-01-23T12:00:04.312Z,25
2019-01-23T12:01:06.942Z,25.1
2019-01-23T12:02:09.155Z,25
2019-01-23T12:03:11.629Z,24.9
2019-01-23T12:04:14.107Z,24.9
2019-01-23T12:05:15.978Z,24.9
2019-01-23T12:06:18.658Z,25.1
2019-01-23T12:07:21.105Z,25
2019-01-23T12:08:23.547Z,24.7
2019-01-23T12:09:25.992Z,24.9
2019-01-23T12:10:27.866Z,25
2019-01-23T12:11:30.292Z,24.9
2019-01-23T12:12:32.177Z,25.2
2019-01-23T12:13:34.339Z,25
2019-01-23T12:14:36.271Z,25.2
2019-01-23T12:15:40.890Z,25.1
2019-01-23T12:16:43.717Z,25.2
2019-01-23T12:17:46.162Z,24.9
2019-01-23T12:18:48.604Z,24.8
2019-01-23T12:19:50.784Z,25.2
2019-01-23T12:20:52.951Z,24.9
2019-01-23T12:21:55.108Z,24.9
2019-01-23T12:22:57.278Z,25
2019-01-23T12:23:59.736Z,25.2
2019-01-23T12:25:01.928Z,24.9
2019-01-23T12:26:04.407Z,24.8
2019-01-23T12:27:06.890Z,25.3
2019-01-23T12:28:09.379Z,25.1
2019-01-23T12:29:11.586Z,25
2019-01-23T12:30:13.854Z,25.3
2019-01-23T12:31:16.227Z,25.3
2019-01-23T12:32:18.802Z,25.1
2019-01-23T12:33:20.753Z,25.1
2019-01-23T12:34:22.951Z,25.3
2019-01-23T12:35:24.878Z,25
2019-01-23T12:36:27.070Z,25.1
2019-01-23T12:37:29.253Z,25
2019-01-23T12:38:31.728Z,25.1
2019-01-23T12:39:33.325Z,24.8
2019-01-23T12:40:35.775Z,24.9
2019-01-23T12:41:37.687Z,25.1
2019-01-23T12:42:39.895Z,25
2019-01-23T12:43:42.393Z,24.9
2019-01-23T12:44:44.868Z,25
2019-01-23T12:45:47.648Z,25.2
2019-01-23T12:46:50.242Z,25.3
2019-01-23T12:47:52.824Z,25.2
2019-01-23T12:48:55.089Z,25.2
2019-01-23T12:49:57.555Z,25
2019-01-23T12:50:59.733Z,24.8
2019-01-23T12:52:01.923Z,25.1
2019-01-23T12:53:04.414Z,25
2019-01-23T12:54:06.877Z,25.1
2019-01-23T12:55:09.425Z,25.1
2019-01-23T12:56:11.637Z,24.9
2019-01-23T12:57:13.873Z,25
2019-01-23T12:58:16.573Z,24.9
2019-01-23T12:59:19.359Z,24.9
2019-01-23T13:00:21.645Z,24.8
2019-01-23T13:01:24.262Z,24.8
2019-01-23T13:02:26.861Z,25.3
2019-01-23T13:03:29.326Z,25
2019-01-23T13:04:31.773Z,25.1
2019-01-23T13:05:34.214Z,24.8
2019-01-23T13:06:36.681Z,24.7
2019-01-23T13:07:38.904Z,25.2
2019-01-23T13:08:41.504Z,25
2019-01-23T13:09:44.046Z,24.9
2019-01-23T13:10:46.654Z,24.9
2019-01-23T13:11:49.151Z,24.9
2019-01-23T13:12:51.622Z,24.8
2019-01-23T13:13:54.070Z,25.2
2019-01-23T13:14:56.545Z,24.9
2019-01-23T13:15:59.203Z,24.8
2019-01-23T13:17:01.760Z,25.2
2019-01-23T13:18:04.050Z,24.8
2019-01-23T13:19:06.277Z,25
2019-01-23T13:20:08.747Z,24.8
2019-01-23T13:21:11.186Z,25
2019-01-23T13:22:13.719Z,25.1
2019-01-23T13:23:19.726Z,25.3
2019-01-23T13:24:20.877Z,25
2019-01-23T13:25:23.388Z,25.2
2019-01-23T13:26:25.636Z,25
2019-01-23T13:27:27.603Z,24.7
2019-01-23T13:28:30.184Z,24.9
2019-01-23T13:29:32.704Z,25
2019-01-23T13:30:35.163Z,24.9
2019-01-23T13:31:37.367Z,24.8
2019-01-23T13:32:39.909Z,25
2019-01-23T13:33:42.101Z,24.8
2019-01-23T13:34:44.540Z,25.1
2019-01-23T13:35:46.980Z,25.1
2019-01-23T13:36:49.100Z,25.3
2019-01-23T13:37:50.735Z,25
2019-01-23T13:38:52.912Z,24.6
2019-01-23T13:39:55.357Z,25
2019-01-23T13:40:57.555Z,24.8
2019-01-23T13:42:00.023Z,25.1
2019-01-23T13:43:01.661Z,24.8
2019-01-23T13:44:03.590Z,25.2
2019-01-23T13:45:06.085Z,25.1
2019-01-23T13:46:08.675Z,24.9
2019-01-23T13:47:11.261Z,25
2019-01-23T13:48:13.721Z,24.6
2019-01-23T13:49:15.589Z,25.1
2019-01-23T13:50:17.827Z,25.1
2019-01-23T13:51:19.689Z,25.2
2019-01-23T13:52:22.130Z,25
2019-01-23T13:53:24.570Z,25.1
2019-01-23T13:54:26.499Z,25.1
2019-01-23T13:55:28.690Z,24.8
2019-01-23T13:56:31.020Z,24.9
2019-01-23T13:57:33.213Z,24.9
2019-01-23T13:58:41.701Z,25.4
2019-01-23T13:59:40.871Z,25.1
2019-01-23T14:00:43.061Z,25.1
2019-01-23T14:01:45.554Z,24.9